Time;durP1;ratioP1;P1;durP2;ratioP2;P2;SDS_P1;SDS_P2;PMS_P1;PMS_P2;Temp;Humidity;BMP_temperature;BMP_pressure;BME280_temperature;BME280_humidity;BME280_pressure;Samples;Min_cycle;Max_cycle;Signal;HPM_P1;HPM_P2
2021/07/21 00:02:18;;;;;;;10.18;7.07;;;;;;;;;;4682474;30;20053;-87
2021/07/21 00:04:43;;;;;;;11.00;7.00;;;;;;;;;;4664541;30;20066;-87
2021/07/21 00:07:17;;;;;;;9.95;6.70;;;;;;;;;;4682766;30;20048;-87
2021/07/21 00:09:43;;;;;;;9.57;7.28;;;;;;;;;;4675679;30;20131;-88
2021/07/21 00:14:53;;;;;;;9.70;7.00;;;;;;;;;;4665081;30;20041;-88
2021/07/21 00:17:33;;;;;;;9.32;6.80;;;;;;;;;;4682937;30;20038;-88
2021/07/21 00:20:10;;;;;;;9.73;6.63;;;;;;;;;;4692637;30;20077;-88
2021/07/21 00:22:41;;;;;;;10.70;7.15;;;;;;;;;;4664052;30;20049;-88
2021/07/21 00:25:10;;;;;;;9.40;6.47;;;;;;;;;;4678697;30;20077;-87
2021/07/21 00:27:35;;;;;;;9.18;6.30;;;;;;;;;;4679634;30;20163;-88
2021/07/21 00:30:04;;;;;;;10.15;6.82;;;;;;;;;;4687837;30;20570;-88
2021/07/21 00:32:30;;;;;;;10.27;7.03;;;;;;;;;;4670483;30;20469;-87
2021/07/21 00:34:55;;;;;;;8.95;6.65;;;;;;;;;;4664273;30;20132;-87
2021/07/21 00:37:20;;;;;;;9.70;6.70;;;;;;;;;;4678940;30;20069;-87
2021/07/21 00:39:46;;;;;;;10.63;6.65;;;;;;;;;;4664445;30;20095;-87
2021/07/21 00:42:11;;;;;;;9.57;6.93;;;;;;;;;;4669190;30;20090;-87
2021/07/21 00:44:37;;;;;;;9.25;6.70;;;;;;;;;;4664832;30;20048;-87
2021/07/21 00:47:03;;;;;;;8.73;6.72;;;;;;;;;;4671876;30;20045;-87
2021/07/21 00:49:29;;;;;;;10.13;7.13;;;;;;;;;;4666257;30;20030;-87
2021/07/21 00:51:54;;;;;;;11.57;7.40;;;;;;;;;;4667765;30;20034;-87
2021/07/21 00:54:23;;;;;;;10.13;7.32;;;;;;;;;;4673857;30;20053;-87
2021/07/21 00:56:51;;;;;;;9.43;6.97;;;;;;;;;;4689249;30;20113;-87
2021/07/21 00:59:18;;;;;;;10.38;7.40;;;;;;;;;;4675851;30;20060;-87
2021/07/21 01:01:43;;;;;;;9.50;7.10;;;;;;;;;;4686584;30;20063;-87
2021/07/21 01:04:09;;;;;;;13.30;7.20;;;;;;;;;;4663397;30;20034;-87
2021/07/21 01:06:36;;;;;;;10.18;7.28;;;;;;;;;;4668255;30;20072;-87
2021/07/21 01:09:06;;;;;;;12.05;8.18;;;;;;;;;;4668471;30;20038;-87
2021/07/21 01:11:49;;;;;;;12.63;7.45;;;;;;;;;;4665211;30;20700;-87
2021/07/21 01:14:23;;;;;;;10.35;7.65;;;;;;;;;;4681652;30;20125;-87
2021/07/21 01:16:55;;;;;;;9.93;7.35;;;;;;;;;;4694555;30;20052;-87
2021/07/21 01:19:40;;;;;;;10.33;7.50;;;;;;;;;;4671739;30;20113;-87
2021/07/21 01:22:19;;;;;;;9.82;7.07;;;;;;;;;;4680523;30;20044;-87
2021/07/21 01:25:05;;;;;;;13.93;8.00;;;;;;;;;;4676907;30;20029;-87
2021/07/21 01:27:40;;;;;;;10.88;7.47;;;;;;;;;;4681289;30;20037;-87
2021/07/21 01:30:10;;;;;;;10.40;7.20;;;;;;;;;;4689846;30;20045;-87
2021/07/21 01:32:38;;;;;;;10.75;8.18;;;;;;;;;;4688230;30;20282;-87
2021/07/21 01:35:15;;;;;;;11.20;7.43;;;;;;;;;;4670184;30;20041;-87
2021/07/21 01:37:48;;;;;;;11.75;7.80;;;;;;;;;;4673979;30;20038;-87
2021/07/21 01:40:21;;;;;;;12.57;7.63;;;;;;;;;;4680475;30;20073;-88
2021/07/21 01:42:52;;;;;;;11.85;7.63;;;;;;;;;;4685839;30;20172;-88
2021/07/21 01:45:19;;;;;;;10.10;7.63;;;;;;;;;;4656690;30;20492;-87
2021/07/21 01:47:46;;;;;;;11.02;8.15;;;;;;;;;;4670087;30;20041;-87
2021/07/21 01:50:12;;;;;;;9.27;6.70;;;;;;;;;;4675783;30;20055;-88
2021/07/21 01:52:40;;;;;;;9.25;7.07;;;;;;;;;;4664784;30;20038;-88
2021/07/21 01:55:07;;;;;;;10.52;7.63;;;;;;;;;;4664121;30;20137;-88
2021/07/21 01:57:33;;;;;;;13.98;7.43;;;;;;;;;;4683419;30;20045;-88
2021/07/21 02:00:00;;;;;;;12.10;7.90;;;;;;;;;;4674424;30;20483;-88
2021/07/21 02:02:27;;;;;;;11.07;7.95;;;;;;;;;;4669692;30;20046;-88
2021/07/21 02:04:53;;;;;;;12.23;8.32;;;;;;;;;;4669314;30;20034;-88
2021/07/21 02:07:20;;;;;;;13.20;8.85;;;;;;;;;;4662359;30;20373;-88
2021/07/21 02:09:47;;;;;;;11.32;7.95;;;;;;;;;;4666766;30;20052;-87
2021/07/21 02:12:14;;;;;;;11.93;8.40;;;;;;;;;;4662632;30;20034;-88
2021/07/21 02:14:41;;;;;;;10.82;8.13;;;;;;;;;;4683910;30;20065;-88
2021/07/21 02:17:09;;;;;;;12.20;9.07;;;;;;;;;;4665084;30;20092;-88
2021/07/21 02:19:35;;;;;;;11.13;8.18;;;;;;;;;;4673623;30;20057;-88
2021/07/21 02:22:01;;;;;;;11.77;8.18;;;;;;;;;;4675337;30;20090;-88
2021/07/21 02:24:30;;;;;;;11.23;7.97;;;;;;;;;;4674806;30;20050;-88
2021/07/21 02:26:56;;;;;;;12.50;8.50;;;;;;;;;;4665462;30;20046;-88
2021/07/21 02:29:22;;;;;;;13.13;8.38;;;;;;;;;;4684779;30;20412;-87
2021/07/21 02:32:12;;;;;;;11.02;8.20;;;;;;;;;;4664520;30;20098;-88
2021/07/21 02:34:38;;;;;;;10.98;7.93;;;;;;;;;;4677466;30;20403;-87
2021/07/21 02:37:04;;;;;;;10.52;8.20;;;;;;;;;;4667982;30;20038;-87
2021/07/21 02:39:30;;;;;;;12.98;8.38;;;;;;;;;;4665301;30;20045;-88
2021/07/21 02:41:55;;;;;;;12.68;8.75;;;;;;;;;;4678397;30;20034;-88
2021/07/21 02:44:21;;;;;;;11.75;8.40;;;;;;;;;;4666818;30;20096;-88
2021/07/21 02:46:47;;;;;;;11.23;8.43;;;;;;;;;;4664037;30;20566;-88
2021/07/21 02:49:15;;;;;;;11.32;8.32;;;;;;;;;;4662479;30;20045;-88
2021/07/21 02:51:59;;;;;;;11.52;8.57;;;;;;;;;;4662488;30;20072;-87
2021/07/21 02:54:43;;;;;;;12.65;8.68;;;;;;;;;;4672941;30;20459;-88
2021/07/21 02:57:15;;;;;;;12.57;9.13;;;;;;;;;;4668294;30;20037;-88
2021/07/21 03:00:05;;;;;;;12.17;8.80;;;;;;;;;;4688072;30;20124;-88
2021/07/21 03:02:34;;;;;;;12.07;8.73;;;;;;;;;;4681302;30;20475;-88
2021/07/21 03:05:01;;;;;;;14.45;8.40;;;;;;;;;;4697040;30;20034;-88
2021/07/21 03:07:28;;;;;;;12.13;8.55;;;;;;;;;;4669178;30;20065;-88
2021/07/21 03:09:54;;;;;;;10.88;8.43;;;;;;;;;;4660206;30;20045;-87
2021/07/21 03:12:23;;;;;;;10.98;8.38;;;;;;;;;;4685762;30;20424;-88
2021/07/21 03:14:51;;;;;;;10.57;7.95;;;;;;;;;;4668995;30;20030;-88
2021/07/21 03:17:17;;;;;;;11.25;8.15;;;;;;;;;;4679324;30;20045;-88
2021/07/21 03:19:49;;;;;;;14.15;8.75;;;;;;;;;;4662521;30;20057;-87
2021/07/21 03:22:19;;;;;;;13.23;8.63;;;;;;;;;;4681327;30;20085;-88
2021/07/21 03:24:45;;;;;;;11.15;8.35;;;;;;;;;;4676110;30;20037;-88
2021/07/21 03:27:12;;;;;;;12.25;8.68;;;;;;;;;;4666898;30;20159;-88
2021/07/21 03:29:38;;;;;;;12.82;8.30;;;;;;;;;;4673548;30;20050;-88
2021/07/21 03:32:06;;;;;;;10.60;8.20;;;;;;;;;;4672770;30;20041;-88
2021/07/21 03:34:35;;;;;;;12.32;8.50;;;;;;;;;;4670128;30;20034;-88
2021/07/21 03:37:01;;;;;;;13.35;9.10;;;;;;;;;;4675726;30;20029;-88
2021/07/21 03:39:27;;;;;;;12.68;8.27;;;;;;;;;;4669389;30;20068;-87
2021/07/21 03:41:53;;;;;;;10.80;7.78;;;;;;;;;;4675951;30;20038;-88
2021/07/21 03:44:23;;;;;;;11.05;8.07;;;;;;;;;;4672710;30;20168;-88
2021/07/21 03:46:48;;;;;;;11.43;7.68;;;;;;;;;;4673043;30;20083;-88
2021/07/21 03:49:17;;;;;;;9.85;7.55;;;;;;;;;;4678849;30;20042;-88
2021/07/21 03:51:42;;;;;;;11.32;7.82;;;;;;;;;;4677828;30;20034;-88
2021/07/21 03:54:10;;;;;;;11.70;7.85;;;;;;;;;;4692337;30;20054;-88
2021/07/21 03:56:38;;;;;;;13.30;8.23;;;;;;;;;;4699296;30;20057;-88
2021/07/21 03:59:05;;;;;;;11.43;8.02;;;;;;;;;;4678532;30;20034;-88
2021/07/21 04:01:33;;;;;;;11.32;8.18;;;;;;;;;;4689662;30;20041;-88
2021/07/21 04:04:00;;;;;;;10.30;7.32;;;;;;;;;;4667531;30;20038;-88
2021/07/21 04:06:31;;;;;;;12.20;8.25;;;;;;;;;;4682269;30;20041;-88
2021/07/21 04:09:02;;;;;;;11.23;8.27;;;;;;;;;;4679920;30;20038;-88
2021/07/21 04:11:28;;;;;;;11.38;7.55;;;;;;;;;;4681174;30;20026;-88
2021/07/21 04:13:54;;;;;;;11.40;8.13;;;;;;;;;;4669339;30;20037;-88
2021/07/21 04:16:20;;;;;;;11.23;8.13;;;;;;;;;;4669957;30;20037;-88
2021/07/21 04:18:46;;;;;;;11.43;7.38;;;;;;;;;;4655505;30;20424;-88
2021/07/21 04:21:12;;;;;;;10.30;7.60;;;;;;;;;;4680492;30;20063;-88
2021/07/21 04:23:41;;;;;;;11.05;7.93;;;;;;;;;;4664675;30;20046;-88
2021/07/21 04:26:10;;;;;;;11.50;8.23;;;;;;;;;;4680119;30;20049;-88
2021/07/21 04:28:40;;;;;;;12.38;8.65;;;;;;;;;;4693166;30;20042;-88
2021/07/21 04:31:06;;;;;;;12.88;9.10;;;;;;;;;;4676650;30;20034;-88
2021/07/21 04:33:33;;;;;;;11.52;8.45;;;;;;;;;;4675131;30;20120;-88
2021/07/21 04:35:59;;;;;;;11.73;9.07;;;;;;;;;;4689077;30;20042;-88
2021/07/21 04:38:25;;;;;;;12.25;9.23;;;;;;;;;;4665950;30;20100;-88
2021/07/21 04:40:51;;;;;;;11.02;8.60;;;;;;;;;;4653195;30;20081;-88
2021/07/21 04:43:17;;;;;;;13.95;9.57;;;;;;;;;;4689905;30;20077;-88
2021/07/21 04:45:51;;;;;;;11.38;8.60;;;;;;;;;;4663587;30;20041;-88
2021/07/21 04:48:17;;;;;;;13.93;8.80;;;;;;;;;;4690376;30;20045;-87
2021/07/21 04:50:45;;;;;;;15.45;10.52;;;;;;;;;;4674756;30;20129;-87
2021/07/21 04:53:12;;;;;;;13.90;10.48;;;;;;;;;;4673089;30;20025;-88
2021/07/21 04:55:40;;;;;;;12.30;9.05;;;;;;;;;;4674675;30;20400;-88
2021/07/21 04:58:06;;;;;;;12.73;9.30;;;;;;;;;;4675434;30;20044;-88
2021/07/21 05:00:31;;;;;;;13.38;9.02;;;;;;;;;;4662688;30;20125;-88
2021/07/21 05:02:57;;;;;;;12.20;9.27;;;;;;;;;;4666162;30;20050;-87
2021/07/21 05:05:23;;;;;;;12.32;8.90;;;;;;;;;;4666610;30;20047;-87
2021/07/21 05:07:49;;;;;;;13.35;9.60;;;;;;;;;;4665201;30;20129;-87
2021/07/21 05:10:14;;;;;;;12.85;9.43;;;;;;;;;;4673100;30;20171;-87
2021/07/21 05:12:44;;;;;;;13.15;9.82;;;;;;;;;;4663990;30;20125;-87
2021/07/21 05:15:13;;;;;;;14.50;9.82;;;;;;;;;;4676116;30;20045;-87
2021/07/21 05:17:44;;;;;;;12.95;9.45;;;;;;;;;;4665079;30;20069;-87
2021/07/21 05:20:13;;;;;;;13.90;10.13;;;;;;;;;;4674557;30;22383;-87
2021/07/21 05:22:45;;;;;;;15.32;9.82;;;;;;;;;;4671091;30;20050;-87
2021/07/21 05:25:11;;;;;;;13.05;10.02;;;;;;;;;;4653250;30;20045;-87
2021/07/21 05:27:37;;;;;;;13.77;10.40;;;;;;;;;;4652189;30;20050;-87
2021/07/21 05:30:04;;;;;;;13.75;9.70;;;;;;;;;;4672687;30;20551;-87
2021/07/21 05:32:29;;;;;;;17.42;10.30;;;;;;;;;;4672782;30;20131;-88
2021/07/21 05:34:55;;;;;;;12.95;9.60;;;;;;;;;;4675321;30;20107;-87
2021/07/21 05:37:20;;;;;;;13.13;9.30;;;;;;;;;;4677952;30;20036;-87
2021/07/21 05:39:46;;;;;;;12.40;9.25;;;;;;;;;;4671537;30;20057;-87
2021/07/21 05:42:11;;;;;;;13.82;9.85;;;;;;;;;;4664487;30;20044;-87
2021/07/21 05:44:40;;;;;;;14.35;9.55;;;;;;;;;;4674837;30;20045;-87
2021/07/21 05:47:06;;;;;;;13.38;10.07;;;;;;;;;;4679827;30;20038;-87
2021/07/21 05:49:31;;;;;;;14.15;9.45;;;;;;;;;;4672998;30;20158;-87
2021/07/21 05:51:57;;;;;;;13.00;9.60;;;;;;;;;;4666294;30;20038;-87
2021/07/21 05:54:25;;;;;;;13.10;9.07;;;;;;;;;;4665837;30;20075;-87
2021/07/21 05:56:51;;;;;;;12.90;9.05;;;;;;;;;;4688949;30;20062;-87
2021/07/21 05:59:17;;;;;;;15.65;9.63;;;;;;;;;;4665480;30;20514;-87
2021/07/21 06:01:49;;;;;;;18.58;11.13;;;;;;;;;;4667585;30;20073;-87
2021/07/21 06:04:15;;;;;;;16.55;10.98;;;;;;;;;;4663892;30;20053;-86
2021/07/21 06:06:40;;;;;;;17.67;10.75;;;;;;;;;;4673359;30;20064;-86
2021/07/21 06:09:06;;;;;;;19.70;10.55;;;;;;;;;;4656058;30;20049;-87
2021/07/21 06:11:32;;;;;;;19.52;11.82;;;;;;;;;;4664719;30;20050;-87
2021/07/21 06:14:00;;;;;;;16.05;10.25;;;;;;;;;;4678166;30;20038;-87
2021/07/21 06:16:26;;;;;;;15.60;10.07;;;;;;;;;;4659307;30;20041;-87
2021/07/21 06:18:52;;;;;;;14.52;10.13;;;;;;;;;;4683842;30;20038;-87
2021/07/21 06:21:17;;;;;;;14.48;9.88;;;;;;;;;;4665871;30;20474;-87
2021/07/21 06:23:43;;;;;;;14.23;9.07;;;;;;;;;;4662491;30;21744;-86
2021/07/21 06:26:08;;;;;;;15.10;10.20;;;;;;;;;;4663515;30;20037;-86
2021/07/21 06:28:34;;;;;;;16.52;9.38;;;;;;;;;;4666999;30;20558;-86
2021/07/21 06:31:00;;;;;;;14.77;9.50;;;;;;;;;;4669874;30;20057;-86
2021/07/21 06:33:25;;;;;;;15.82;10.02;;;;;;;;;;4651846;30;20081;-86
2021/07/21 06:35:51;;;;;;;16.80;9.60;;;;;;;;;;4675730;30;20029;-86
2021/07/21 06:38:17;;;;;;;14.95;8.55;;;;;;;;;;4688019;30;20038;-84
2021/07/21 06:40:43;;;;;;;16.48;9.40;;;;;;;;;;4673234;30;20066;-84
2021/07/21 06:43:08;;;;;;;13.25;9.07;;;;;;;;;;4663900;30;20192;-84
2021/07/21 06:45:34;;;;;;;14.68;9.27;;;;;;;;;;4669448;30;20053;-84
2021/07/21 06:48:00;;;;;;;16.65;9.07;;;;;;;;;;4661861;30;20033;-84
2021/07/21 06:50:26;;;;;;;14.23;8.80;;;;;;;;;;4671826;30;20071;-84
2021/07/21 06:52:52;;;;;;;15.25;9.05;;;;;;;;;;4670415;30;20401;-83
2021/07/21 06:55:18;;;;;;;13.88;8.73;;;;;;;;;;4670958;30;20513;-84
2021/07/21 06:57:43;;;;;;;14.02;8.77;;;;;;;;;;4666481;30;20030;-83
2021/07/21 07:00:09;;;;;;;13.63;8.07;;;;;;;;;;4661822;30;20487;-80
2021/07/21 07:02:35;;;;;;;13.45;8.15;;;;;;;;;;4674809;30;20088;-84
2021/07/21 07:05:01;;;;;;;14.82;7.70;;;;;;;;;;4665133;30;20093;-84
2021/07/21 07:07:26;;;;;;;12.73;7.53;;;;;;;;;;4668848;30;20042;-84
2021/07/21 07:09:52;;;;;;;14.50;7.75;;;;;;;;;;4654746;30;20037;-84
2021/07/21 07:12:18;;;;;;;11.98;7.35;;;;;;;;;;4675959;30;20045;-84
2021/07/21 07:14:43;;;;;;;12.18;7.35;;;;;;;;;;4672510;30;20037;-84
2021/07/21 07:17:09;;;;;;;11.35;6.07;;;;;;;;;;4673711;30;20040;-84
2021/07/21 07:19:35;;;;;;;14.77;6.78;;;;;;;;;;4678877;30;20053;-84
2021/07/21 07:22:01;;;;;;;10.85;6.80;;;;;;;;;;4653025;30;20042;-84
2021/07/21 07:24:29;;;;;;;9.30;6.00;;;;;;;;;;4663912;30;20038;-84
2021/07/21 07:26:57;;;;;;;8.98;5.57;;;;;;;;;;4665498;30;20096;-84
2021/07/21 07:29:22;;;;;;;9.27;5.60;;;;;;;;;;4676522;30;20025;-84
2021/07/21 07:31:47;;;;;;;10.45;5.65;;;;;;;;;;4672626;30;20124;-84
2021/07/21 07:34:13;;;;;;;9.45;5.38;;;;;;;;;;4689793;30;20041;-84
2021/07/21 07:36:38;;;;;;;9.15;5.22;;;;;;;;;;4677583;30;20462;-84
2021/07/21 07:39:05;;;;;;;7.95;4.90;;;;;;;;;;4670647;30;20041;-84
2021/07/21 07:41:31;;;;;;;7.97;5.10;;;;;;;;;;4667129;30;20415;-84
2021/07/21 07:43:56;;;;;;;8.70;5.68;;;;;;;;;;4664280;30;20046;-84
2021/07/21 07:46:25;;;;;;;9.43;5.63;;;;;;;;;;4669303;30;20049;-84
2021/07/21 07:48:55;;;;;;;9.85;5.57;;;;;;;;;;4669269;30;20046;-84
2021/07/21 07:51:22;;;;;;;8.60;5.38;;;;;;;;;;4684715;30;20041;-83
2021/07/21 07:53:47;;;;;;;10.20;5.38;;;;;;;;;;4675295;30;20038;-83
2021/07/21 07:56:13;;;;;;;7.28;4.68;;;;;;;;;;4667919;30;20046;-83
2021/07/21 07:58:38;;;;;;;7.65;4.97;;;;;;;;;;4677831;30;20029;-83
2021/07/21 08:01:04;;;;;;;7.85;4.80;;;;;;;;;;4675881;30;20411;-83
2021/07/21 08:03:30;;;;;;;7.45;4.85;;;;;;;;;;4675213;30;20036;-83
2021/07/21 08:05:59;;;;;;;7.43;5.05;;;;;;;;;;4667013;30;20060;-83
2021/07/21 08:08:24;;;;;;;10.10;5.60;;;;;;;;;;4665103;30;20042;-84
2021/07/21 08:10:50;;;;;;;8.63;5.40;;;;;;;;;;4685510;30;20030;-84
2021/07/21 08:13:15;;;;;;;7.53;5.07;;;;;;;;;;4682079;30;20508;-84
2021/07/21 08:15:41;;;;;;;9.23;5.22;;;;;;;;;;4674031;30;20103;-84
2021/07/21 08:18:07;;;;;;;7.80;5.40;;;;;;;;;;4679289;30;20053;-84
2021/07/21 08:20:32;;;;;;;8.18;5.20;;;;;;;;;;4679337;30;20083;-84
2021/07/21 08:22:58;;;;;;;9.57;5.15;;;;;;;;;;4701865;30;20106;-83
2021/07/21 08:25:24;;;;;;;8.05;5.22;;;;;;;;;;4672548;30;20080;-83
2021/07/21 08:27:52;;;;;;;9.93;5.63;;;;;;;;;;4665042;30;20057;-84
2021/07/21 08:30:18;;;;;;;9.00;5.10;;;;;;;;;;4685740;30;20034;-83
2021/07/21 08:32:49;;;;;;;8.77;5.38;;;;;;;;;;4682384;30;20034;-83
2021/07/21 08:35:17;;;;;;;7.72;4.90;;;;;;;;;;4683928;30;20049;-83
2021/07/21 08:37:42;;;;;;;9.48;5.10;;;;;;;;;;4669158;30;20082;-83
2021/07/21 08:40:09;;;;;;;8.85;5.40;;;;;;;;;;4691361;30;20037;-83
2021/07/21 08:42:35;;;;;;;12.93;4.93;;;;;;;;;;4682313;30;20125;-83
2021/07/21 08:45:01;;;;;;;8.10;4.70;;;;;;;;;;4667443;30;20080;-83
2021/07/21 08:47:26;;;;;;;8.80;4.90;;;;;;;;;;4688307;30;20381;-83
2021/07/21 08:49:52;;;;;;;8.07;5.00;;;;;;;;;;4674093;30;21473;-83
2021/07/21 08:52:18;;;;;;;9.30;4.97;;;;;;;;;;4669511;30;20051;-84
2021/07/21 08:54:47;;;;;;;8.70;5.13;;;;;;;;;;4684371;30;20048;-84
2021/07/21 08:57:14;;;;;;;8.57;5.20;;;;;;;;;;4688690;30;20443;-84
2021/07/21 08:59:43;;;;;;;10.90;5.72;;;;;;;;;;4679801;30;20090;-84
2021/07/21 09:02:10;;;;;;;8.60;4.93;;;;;;;;;;4682766;30;20373;-84
2021/07/21 09:04:36;;;;;;;7.25;4.57;;;;;;;;;;4670139;30;20038;-84
2021/07/21 09:07:03;;;;;;;8.00;4.55;;;;;;;;;;4674922;30;20499;-84
2021/07/21 09:09:29;;;;;;;9.25;4.55;;;;;;;;;;4668866;30;20044;-84
2021/07/21 09:11:56;;;;;;;7.22;4.70;;;;;;;;;;4670667;30;20038;-84
2021/07/21 09:14:22;;;;;;;10.13;5.40;;;;;;;;;;4683035;30;20480;-83
2021/07/21 09:17:04;;;;;;;7.85;4.90;;;;;;;;;;4671952;30;20040;-83
2021/07/21 09:19:31;;;;;;;8.88;5.30;;;;;;;;;;4677789;30;20054;-84
2021/07/21 09:22:12;;;;;;;8.85;5.13;;;;;;;;;;4687804;30;20481;-84
2021/07/21 09:24:37;;;;;;;9.00;5.35;;;;;;;;;;4686813;30;20484;-84
2021/07/21 09:27:03;;;;;;;7.93;4.95;;;;;;;;;;4676884;30;20176;-84
2021/07/21 09:29:28;;;;;;;7.30;4.70;;;;;;;;;;4674544;30;20048;-84
2021/07/21 09:31:59;;;;;;;7.97;4.70;;;;;;;;;;4650844;30;20176;-83
2021/07/21 09:34:26;;;;;;;8.77;4.78;;;;;;;;;;4671572;30;20126;-83
2021/07/21 09:37:07;;;;;;;7.50;4.47;;;;;;;;;;4661847;30;20065;-83
2021/07/21 09:39:34;;;;;;;7.50;4.95;;;;;;;;;;4688538;30;20143;-83
2021/07/21 09:42:00;;;;;;;8.55;4.47;;;;;;;;;;4665471;30;20046;-83
2021/07/21 09:44:52;;;;;;;7.72;4.75;;;;;;;;;;4691967;30;20044;-83
2021/07/21 09:47:24;;;;;;;10.05;5.20;;;;;;;;;;4659436;30;20500;-83
2021/07/21 09:49:51;;;;;;;6.27;4.43;;;;;;;;;;4693164;30;20116;-84
2021/07/21 09:52:21;;;;;;;8.65;4.57;;;;;;;;;;4670503;30;20271;-83
2021/07/21 09:55:06;;;;;;;10.63;5.05;;;;;;;;;;4676151;30;20041;-83
2021/07/21 09:57:33;;;;;;;10.30;5.32;;;;;;;;;;4682445;30;20054;-84
2021/07/21 10:00:00;;;;;;;7.88;5.07;;;;;;;;;;4665959;30;20133;-84
2021/07/21 10:02:25;;;;;;;7.53;4.85;;;;;;;;;;4690202;30;20514;-84
2021/07/21 10:04:51;;;;;;;8.82;5.13;;;;;;;;;;4685160;30;20109;-84
2021/07/21 10:07:48;;;;;;;7.88;5.13;;;;;;;;;;4671193;30;20029;-84
2021/07/21 10:10:17;;;;;;;8.77;5.65;;;;;;;;;;4676305;30;20045;-84
2021/07/21 10:12:43;;;;;;;9.02;5.38;;;;;;;;;;4680524;30;20060;-83
2021/07/21 10:15:09;;;;;;;7.05;4.80;;;;;;;;;;4674045;30;20491;-83
2021/07/21 10:17:35;;;;;;;8.15;5.05;;;;;;;;;;4653499;30;20133;-83
2021/07/21 10:20:00;;;;;;;9.10;5.22;;;;;;;;;;4670760;30;20149;-83
2021/07/21 10:22:26;;;;;;;8.70;5.07;;;;;;;;;;4698899;30;20121;-83
2021/07/21 10:24:53;;;;;;;9.18;5.10;;;;;;;;;;4672960;30;20041;-84
2021/07/21 10:27:20;;;;;;;10.10;6.15;;;;;;;;;;4669669;30;20125;-84
2021/07/21 10:29:46;;;;;;;9.05;5.25;;;;;;;;;;4677535;30;20065;-84
2021/07/21 10:32:14;;;;;;;9.07;5.45;;;;;;;;;;4689724;30;20026;-84
2021/07/21 10:34:42;;;;;;;9.55;5.25;;;;;;;;;;4670486;30;20096;-84
2021/07/21 10:37:08;;;;;;;10.85;6.57;;;;;;;;;;4663319;30;20492;-84
2021/07/21 10:39:36;;;;;;;8.95;5.60;;;;;;;;;;4674892;30;20427;-84
2021/07/21 10:42:14;;;;;;;9.05;5.60;;;;;;;;;;4688492;30;20026;-83
2021/07/21 10:44:39;;;;;;;8.75;6.13;;;;;;;;;;4688024;30;20549;-83
2021/07/21 10:47:25;;;;;;;9.80;5.70;;;;;;;;;;4667876;30;20034;-83
2021/07/21 10:49:56;;;;;;;9.32;5.40;;;;;;;;;;4674466;30;20124;-83
2021/07/21 11:00:30;;;;;;;9.25;5.60;;;;;;;;;;4685062;30;20459;-84
2021/07/21 11:03:21;;;;;;;8.75;5.45;;;;;;;;;;4696367;30;20095;-83
2021/07/21 11:06:01;;;;;;;9.82;5.28;;;;;;;;;;4684459;30;20502;-83
2021/07/21 11:08:28;;;;;;;8.57;5.75;;;;;;;;;;4683334;30;20084;-83
2021/07/21 11:10:55;;;;;;;10.20;6.35;;;;;;;;;;4669176;30;20134;-83
2021/07/21 11:13:30;;;;;;;9.52;5.95;;;;;;;;;;4678211;30;20172;-83
2021/07/21 11:15:57;;;;;;;9.00;5.72;;;;;;;;;;4681060;30;20046;-82
2021/07/21 11:18:23;;;;;;;9.32;5.80;;;;;;;;;;4667358;30;20455;-83
2021/07/21 11:21:04;;;;;;;8.52;5.55;;;;;;;;;;4677112;30;20054;-83
2021/07/21 11:23:51;;;;;;;8.90;6.22;;;;;;;;;;4694155;30;20496;-83
2021/07/21 11:26:34;;;;;;;8.10;5.85;;;;;;;;;;4674024;30;20030;-83
2021/07/21 11:29:29;;;;;;;7.35;5.50;;;;;;;;;;4670316;30;20045;-83
2021/07/21 11:31:55;;;;;;;8.65;5.60;;;;;;;;;;4670766;30;20037;-81
2021/07/21 11:34:38;;;;;;;8.48;5.53;;;;;;;;;;4674593;30;20133;-80
2021/07/21 11:37:16;;;;;;;8.70;5.65;;;;;;;;;;4684828;30;20045;-79
2021/07/21 11:39:50;;;;;;;10.02;5.30;;;;;;;;;;4691986;30;20060;-80
2021/07/21 11:42:26;;;;;;;9.13;5.53;;;;;;;;;;4679702;30;20484;-80
2021/07/21 11:45:12;;;;;;;8.20;5.53;;;;;;;;;;4696465;30;20029;-79
2021/07/21 11:47:43;;;;;;;7.47;4.97;;;;;;;;;;4677560;30;20067;-80
2021/07/21 11:50:20;;;;;;;10.45;5.43;;;;;;;;;;4692071;30;20038;-81
2021/07/21 11:53:10;;;;;;;8.02;5.28;;;;;;;;;;4689527;30;20117;-81
2021/07/21 11:55:37;;;;;;;7.55;5.00;;;;;;;;;;4698091;30;20091;-82
2021/07/21 11:58:11;;;;;;;8.15;5.05;;;;;;;;;;4676431;30;20040;-81
2021/07/21 12:00:36;;;;;;;7.40;5.25;;;;;;;;;;4678294;30;20037;-81
2021/07/21 12:03:05;;;;;;;8.65;5.50;;;;;;;;;;4677226;30;20037;-81
2021/07/21 12:05:32;;;;;;;8.02;4.78;;;;;;;;;;4679503;30;20037;-82
2021/07/21 12:08:06;;;;;;;8.30;5.05;;;;;;;;;;4674983;30;20496;-80
2021/07/21 12:10:33;;;;;;;7.70;5.53;;;;;;;;;;4691456;30;20104;-80
2021/07/21 12:13:10;;;;;;;8.40;5.50;;;;;;;;;;4691418;30;20087;-80
2021/07/21 12:15:36;;;;;;;9.02;5.30;;;;;;;;;;4676001;30;20038;-81
2021/07/21 12:18:09;;;;;;;7.97;5.20;;;;;;;;;;4676148;30;20503;-82
2021/07/21 12:20:35;;;;;;;8.23;5.05;;;;;;;;;;4674624;30;20065;-81
2021/07/21 12:23:00;;;;;;;9.63;4.88;;;;;;;;;;4674634;30;20046;-81
2021/07/21 12:25:30;;;;;;;8.13;5.05;;;;;;;;;;4671196;30;20037;-81
2021/07/21 12:27:55;;;;;;;8.35;5.30;;;;;;;;;;4697271;30;20492;-81
2021/07/21 12:30:23;;;;;;;7.82;5.07;;;;;;;;;;4686366;30;20038;-81
2021/07/21 12:32:51;;;;;;;7.18;5.40;;;;;;;;;;4694682;30;20368;-81
2021/07/21 12:35:20;;;;;;;8.65;5.30;;;;;;;;;;4678634;30;20445;-82
2021/07/21 12:37:51;;;;;;;8.40;5.40;;;;;;;;;;4700758;30;20033;-81
2021/07/21 12:40:21;;;;;;;7.57;4.78;;;;;;;;;;4713205;30;20037;-80
2021/07/21 12:42:48;;;;;;;6.97;5.10;;;;;;;;;;4701746;30;20037;-81
2021/07/21 12:45:15;;;;;;;7.30;5.00;;;;;;;;;;4686704;30;20091;-80
2021/07/21 12:47:46;;;;;;;7.80;5.50;;;;;;;;;;4675959;30;20033;-81
2021/07/21 12:50:13;;;;;;;8.27;5.30;;;;;;;;;;4675650;30;20210;-80
2021/07/21 12:52:58;;;;;;;8.15;5.43;;;;;;;;;;4680206;30;20091;-80
2021/07/21 12:55:35;;;;;;;12.30;5.88;;;;;;;;;;4673151;30;20104;-80
2021/07/21 12:58:03;;;;;;;7.55;5.28;;;;;;;;;;4693537;30;20037;-80
2021/07/21 13:00:30;;;;;;;8.43;6.00;;;;;;;;;;4695911;30;20091;-81
2021/07/21 13:03:08;;;;;;;7.28;4.82;;;;;;;;;;4693695;30;20030;-81
2021/07/21 13:05:56;;;;;;;9.20;5.38;;;;;;;;;;4678219;30;20073;-80
2021/07/21 13:08:32;;;;;;;7.78;5.60;;;;;;;;;;4694620;30;20029;-81
2021/07/21 13:11:14;;;;;;;8.30;5.57;;;;;;;;;;4681223;30;20045;-81
2021/07/21 13:13:56;;;;;;;9.98;5.93;;;;;;;;;;4678234;30;20047;-81
2021/07/21 13:16:24;;;;;;;8.20;5.68;;;;;;;;;;4688163;30;20275;-81
2021/07/21 13:18:50;;;;;;;9.93;5.80;;;;;;;;;;4695110;30;20361;-81
2021/07/21 13:21:26;;;;;;;7.60;5.45;;;;;;;;;;4679863;30;20757;-81
2021/07/21 13:23:58;;;;;;;9.88;5.78;;;;;;;;;;4702433;30;20033;-81
2021/07/21 13:26:24;;;;;;;7.45;5.28;;;;;;;;;;4690551;30;20598;-81
2021/07/21 13:28:51;;;;;;;10.60;6.10;;;;;;;;;;4678614;30;20046;-81
2021/07/21 13:31:25;;;;;;;11.95;5.85;;;;;;;;;;4678342;30;20049;-81
2021/07/21 13:33:55;;;;;;;7.28;5.50;;;;;;;;;;4694622;30;20494;-81
2021/07/21 13:36:38;;;;;;;9.80;5.95;;;;;;;;;;4668742;30;20026;-81
2021/07/21 13:39:04;;;;;;;;;;;;;;;;;;4678936;30;20053;-81
2021/07/21 13:41:36;;;;;;;8.35;5.82;;;;;;;;;;4691318;30;20593;-81
2021/07/21 13:44:07;;;;;;;7.53;5.43;;;;;;;;;;4690807;30;20045;-81
2021/07/21 13:46:34;;;;;;;9.82;5.57;;;;;;;;;;4693464;30;20120;-81
2021/07/21 13:49:10;;;;;;;8.35;5.90;;;;;;;;;;4671844;30;20056;-81
2021/07/21 13:51:41;;;;;;;8.60;6.18;;;;;;;;;;4679416;30;20056;-81
2021/07/21 13:54:21;;;;;;;9.60;6.25;;;;;;;;;;4677050;30;20480;-81
2021/07/21 13:56:50;;;;;;;9.25;6.38;;;;;;;;;;4676949;30;20518;-82
2021/07/21 13:59:17;;;;;;;8.20;5.53;;;;;;;;;;4671415;30;20049;-81
2021/07/21 14:01:43;;;;;;;8.13;5.97;;;;;;;;;;4666843;30;21955;-81
2021/07/21 14:04:09;;;;;;;11.00;6.25;;;;;;;;;;4673611;30;20514;-81
2021/07/21 14:06:35;;;;;;;8.15;6.20;;;;;;;;;;4681170;30;20033;-81
2021/07/21 14:09:03;;;;;;;7.97;6.15;;;;;;;;;;4668369;30;20105;-81
2021/07/21 14:11:28;;;;;;;9.80;5.75;;;;;;;;;;4671897;30;20056;-81
2021/07/21 14:13:53;;;;;;;9.27;6.20;;;;;;;;;;4668926;30;20049;-81
2021/07/21 14:16:19;;;;;;;8.70;5.57;;;;;;;;;;4669427;30;20124;-81
2021/07/21 14:18:45;;;;;;;9.25;5.97;;;;;;;;;;4697182;30;20049;-82
2021/07/21 14:21:11;;;;;;;10.95;6.20;;;;;;;;;;4682186;30;20049;-82
2021/07/21 14:23:40;;;;;;;10.48;6.18;;;;;;;;;;4681764;30;20037;-82
2021/07/21 14:26:07;;;;;;;9.57;6.25;;;;;;;;;;4663767;30;20041;-82
2021/07/21 14:28:33;;;;;;;11.18;6.38;;;;;;;;;;4678629;30;20054;-82
2021/07/21 14:30:58;;;;;;;8.52;5.72;;;;;;;;;;4687672;30;20041;-82
2021/07/21 14:33:24;;;;;;;8.52;6.00;;;;;;;;;;4652782;30;20069;-82
2021/07/21 14:35:50;;;;;;;7.80;5.88;;;;;;;;;;4663718;30;20100;-82
2021/07/21 14:38:16;;;;;;;11.07;6.43;;;;;;;;;;4683077;30;20052;-82
2021/07/21 14:40:42;;;;;;;10.65;6.53;;;;;;;;;;4679626;30;20041;-82
2021/07/21 14:43:08;;;;;;;9.15;6.03;;;;;;;;;;4686438;30;20208;-82
2021/07/21 14:45:33;;;;;;;10.65;7.18;;;;;;;;;;4685135;30;20073;-83
2021/07/21 14:47:58;;;;;;;10.45;6.20;;;;;;;;;;4671483;30;20762;-82
2021/07/21 14:50:24;;;;;;;9.30;6.35;;;;;;;;;;4676778;30;20408;-81
2021/07/21 14:52:49;;;;;;;9.40;6.40;;;;;;;;;;4667155;30;20038;-82
2021/07/21 14:55:15;;;;;;;8.25;5.85;;;;;;;;;;4676766;30;20045;-81
2021/07/21 14:57:40;;;;;;;8.90;6.30;;;;;;;;;;4673421;30;20059;-81